Time;durP1;ratioP1;P1;durP2;ratioP2;P2;SDS_P1;SDS_P2;PMS_P1;PMS_P2;Temp;Humidity;BMP_temperature;BMP_pressure;BME280_temperature;BME280_humidity;BME280_pressure;Samples;Min_cycle;Max_cycle;Signal;HPM_P1;HPM_P2
2023/07/20 00:01:24;;;;;;;3.58;1.60;;;;;;;22.57;41.11;100383.41;4098487;28;20051;-71
2023/07/20 00:03:27;;;;;;;4.90;1.67;;;;;;;22.61;40.95;100385.88;4097462;29;20141;-71
2023/07/20 00:05:30;;;;;;;2.50;1.75;;;;;;;22.64;41.01;100387.53;4099776;28;20073;-71
2023/07/20 00:07:33;;;;;;;3.58;1.80;;;;;;;22.66;41.12;100391.00;4098966;28;20061;-71
2023/07/20 00:09:36;;;;;;;2.25;1.58;;;;;;;22.68;41.04;100386.50;4079202;29;20131;-71
2023/07/20 00:11:41;;;;;;;5.55;2.67;;;;;;;22.69;41.06;100392.66;4096322;29;20133;-71
2023/07/20 00:13:43;;;;;;;4.45;1.83;;;;;;;22.60;41.33;100391.22;4098697;28;20489;-71
2023/07/20 00:15:46;;;;;;;5.53;1.75;;;;;;;22.56;41.19;100389.59;4097064;28;20067;-70
2023/07/20 00:17:49;;;;;;;4.22;1.65;;;;;;;22.53;41.36;100387.97;4079235;29;20150;-70
2023/07/20 00:19:51;;;;;;;4.05;1.92;;;;;;;22.51;41.41;100384.47;4095734;28;20465;-70
2023/07/20 00:21:54;;;;;;;4.07;1.63;;;;;;;22.47;41.35;100390.81;4080915;29;20047;-69
2023/07/20 00:23:57;;;;;;;2.58;1.63;;;;;;;22.43;41.29;100390.06;4095159;29;20385;-70
2023/07/20 00:26:00;;;;;;;4.05;2.08;;;;;;;22.38;41.59;100396.44;4080569;29;20050;-70
2023/07/20 00:28:05;;;;;;;4.53;1.75;;;;;;;22.34;41.95;100394.81;4095867;29;20044;-69
2023/07/20 00:30:09;;;;;;;4.75;1.73;;;;;;;22.37;41.67;100397.34;4078704;29;20078;-70
2023/07/20 00:32:11;;;;;;;3.92;1.80;;;;;;;22.37;41.92;100397.34;4097842;29;20042;-70
2023/07/20 00:34:13;;;;;;;3.00;1.85;;;;;;;22.34;41.89;100390.41;4081040;29;20035;-70
2023/07/20 00:36:16;;;;;;;2.67;1.60;;;;;;;22.36;41.88;100395.66;4082116;29;20047;-71
2023/07/20 00:38:20;;;;;;;3.92;1.92;;;;;;;22.37;41.81;100392.06;4077541;29;20522;-71
2023/07/20 00:40:23;;;;;;;3.97;1.83;;;;;;;22.31;41.90;100399.28;4096983;28;20051;-72
2023/07/20 00:42:26;;;;;;;5.25;1.83;;;;;;;22.26;41.90;100393.28;4083140;29;20047;-71
2023/07/20 00:44:30;;;;;;;5.70;2.00;;;;;;;22.15;42.21;100398.06;4098554;28;20031;-72
2023/07/20 00:46:34;;;;;;;5.45;2.08;;;;;;;22.14;42.38;100405.16;4079076;29;20086;-70
2023/07/20 00:48:37;;;;;;;4.80;2.13;;;;;;;22.17;42.25;100396.25;4080276;29;20052;-70
2023/07/20 00:50:40;;;;;;;4.07;1.70;;;;;;;22.21;42.17;100397.00;4079341;29;20044;-70
2023/07/20 00:52:44;;;;;;;4.60;1.60;;;;;;;22.20;42.22;100401.44;4080165;29;20473;-70
2023/07/20 00:54:48;;;;;;;3.97;2.10;;;;;;;22.19;42.42;100399.69;4091229;29;20614;-70
2023/07/20 00:56:53;;;;;;;4.93;1.70;;;;;;;22.22;42.38;100404.88;4082911;29;20044;-71
2023/07/20 00:58:55;;;;;;;4.95;1.77;;;;;;;22.17;42.58;100406.00;4079854;29;20067;-71
2023/07/20 01:00:59;;;;;;;5.53;2.00;;;;;;;22.14;42.42;100401.66;4097187;28;20039;-70
2023/07/20 01:03:02;;;;;;;2.80;1.80;;;;;;;22.10;42.53;100400.03;4078496;29;20046;-70
2023/07/20 01:05:07;;;;;;;2.85;1.67;;;;;;;22.05;42.81;100397.56;4090340;29;20052;-70
2023/07/20 01:07:15;;;;;;;3.90;2.00;;;;;;;22.08;42.83;100401.88;4064082;29;20043;-71
2023/07/20 01:09:20;;;;;;;4.55;1.88;;;;;;;22.07;42.71;100403.66;4080405;29;20040;-70
2023/07/20 01:11:31;;;;;;;6.13;1.77;;;;;;;21.99;43.02;100403.06;4079351;29;20043;-71
2023/07/20 01:13:35;;;;;;;5.53;2.10;;;;;;;21.92;43.39;100406.84;4078195;29;20293;-71
2023/07/20 01:15:38;;;;;;;4.50;2.08;;;;;;;21.91;43.43;100400.66;4081018;29;20048;-71
2023/07/20 01:17:42;;;;;;;3.60;1.83;;;;;;;21.85;43.78;100406.16;4075289;29;20047;-71
2023/07/20 01:19:45;;;;;;;5.25;2.05;;;;;;;21.83;44.22;100404.47;4080259;29;20489;-70
2023/07/20 01:21:54;;;;;;;3.40;1.80;;;;;;;21.81;44.65;100408.97;4081396;29;20402;-70
2023/07/20 01:24:18;;;;;;;3.65;1.83;;;;;;;21.77;44.71;100401.13;4080282;29;20036;-71
2023/07/20 01:26:39;;;;;;;3.65;1.85;;;;;;;21.75;44.70;100410.03;4078055;29;20040;-71
2023/07/20 01:28:59;;;;;;;3.42;1.77;;;;;;;21.70;44.68;100415.47;4092586;29;20151;-71
2023/07/20 01:31:18;;;;;;;4.05;2.00;;;;;;;21.67;45.30;100406.75;4092060;29;20107;-71
2023/07/20 01:33:22;;;;;;;4.10;1.80;;;;;;;21.64;45.50;100406.88;4091207;29;20036;-71
2023/07/20 01:35:30;;;;;;;5.05;1.92;;;;;;;21.65;45.49;100405.97;4074279;29;20123;-71
2023/07/20 01:37:34;;;;;;;3.90;1.92;;;;;;;21.66;45.53;100405.91;4078383;29;20050;-70
2023/07/20 01:39:39;;;;;;;3.80;1.88;;;;;;;21.64;45.29;100406.88;4079586;29;20040;-70
2023/07/20 01:41:42;;;;;;;3.85;1.70;;;;;;;21.60;45.89;100406.13;4079955;29;20051;-70
2023/07/20 01:43:45;;;;;;;3.78;1.52;;;;;;;21.59;45.85;100404.38;4095257;29;20070;-70
2023/07/20 01:45:48;;;;;;;3.97;1.80;;;;;;;21.59;45.77;100405.22;4079083;29;20039;-70
2023/07/20 01:47:52;;;;;;;3.60;1.80;;;;;;;21.60;45.70;100403.47;4094922;28;20516;-70
2023/07/20 01:49:55;;;;;;;3.72;2.05;;;;;;;21.57;45.57;100401.78;4081696;29;20047;-70
2023/07/20 01:51:58;;;;;;;2.88;1.90;;;;;;;21.58;45.43;100400.88;4093992;29;20609;-70
2023/07/20 01:54:01;;;;;;;5.00;2.00;;;;;;;21.57;45.32;100399.13;4094050;29;20468;-71
2023/07/20 01:56:04;;;;;;;2.67;1.80;;;;;;;21.53;45.73;100402.78;4076641;29;20513;-71
2023/07/20 01:58:07;;;;;;;6.30;2.10;;;;;;;21.52;45.92;100402.84;4081813;29;20040;-71
2023/07/20 02:00:11;;;;;;;4.90;2.08;;;;;;;21.51;46.12;100403.75;4085742;29;20040;-70
2023/07/20 02:02:18;;;;;;;4.25;2.10;;;;;;;21.50;46.13;100404.66;4069472;29;20047;-71
2023/07/20 02:04:22;;;;;;;5.05;2.08;;;;;;;21.48;46.04;100407.34;4083863;29;20118;-71
2023/07/20 02:06:25;;;;;;;3.45;2.05;;;;;;;21.44;46.23;100405.72;4089077;29;20358;-71
2023/07/20 02:08:27;;;;;;;5.45;1.70;;;;;;;21.40;45.77;100406.72;4086583;29;20035;-71
2023/07/20 02:10:32;;;;;;;;;;;;;;;21.24;46.56;100404.53;4077392;29;20498;-71
2023/07/20 02:12:34;;;;;;;6.60;2.20;;;;;;;21.28;46.44;100406.19;4092649;29;19973;-71
2023/07/20 02:14:37;;;;;;;6.05;2.10;;;;;;;21.29;46.21;100401.78;4088883;29;20039;-70
2023/07/20 02:16:40;;;;;;;2.90;1.83;;;;;;;21.31;45.92;100394.66;4063231;29;20052;-70
2023/07/20 02:18:43;;;;;;;3.88;1.80;;;;;;;21.36;45.80;100392.75;4078081;29;20043;-70
2023/07/20 02:20:48;;;;;;;4.90;1.80;;;;;;;21.37;46.29;100396.22;4091880;29;20046;-70
2023/07/20 02:22:51;;;;;;;;;;;;;;;21.22;46.75;100401.09;4096865;29;20089;-70
2023/07/20 02:24:54;;;;;;;6.95;2.00;;;;;;;21.23;47.13;100397.53;4077999;29;19930;-69
2023/07/20 02:26:57;;;;;;;5.88;2.15;;;;;;;21.22;46.99;100403.72;4062351;29;20470;-70
2023/07/20 02:29:00;;;;;;;3.47;1.90;;;;;;;21.25;47.14;100401.00;4067893;29;20040;-70
2023/07/20 02:31:03;;;;;;;3.55;1.92;;;;;;;21.26;47.31;100402.72;4094695;29;20046;-70
2023/07/20 02:33:06;;;;;;;6.03;2.53;;;;;;;21.25;47.08;100400.13;4085609;29;20486;-70
2023/07/20 02:35:09;;;;;;;4.22;2.08;;;;;;;21.17;47.38;100402.13;4082028;29;20512;-70
2023/07/20 02:37:12;;;;;;;3.97;1.92;;;;;;;21.14;47.29;100403.09;4066684;29;20060;-70
2023/07/20 02:39:16;;;;;;;5.88;2.00;;;;;;;21.09;47.64;100399.72;4088888;29;20075;-69
2023/07/20 02:41:20;;;;;;;4.18;1.70;;;;;;;21.04;47.47;100402.53;4075354;29;20099;-70
2023/07/20 02:43:23;;;;;;;5.93;2.30;;;;;;;21.04;47.62;100401.63;4094010;29;20110;-70
2023/07/20 02:45:25;;;;;;;5.55;2.40;;;;;;;21.04;47.60;100406.91;4078152;29;20096;-70
2023/07/20 02:47:28;;;;;;;4.85;1.88;;;;;;;21.04;47.74;100410.47;4060609;29;20119;-70
2023/07/20 02:49:31;;;;;;;7.80;2.33;;;;;;;21.03;47.84;100410.50;4087260;29;20086;-70
2023/07/20 02:51:36;;;;;;;4.15;1.90;;;;;;;21.02;48.25;100406.97;4069071;29;20506;-70
2023/07/20 02:53:41;;;;;;;4.22;2.03;;;;;;;21.01;48.13;100404.38;4090176;29;20110;-70
2023/07/20 02:55:44;;;;;;;4.22;2.03;;;;;;;20.96;48.35;100408.94;4093722;29;20461;-70
2023/07/20 02:57:47;;;;;;;4.65;1.90;;;;;;;20.92;48.03;100414.34;4076226;29;20040;-70
2023/07/20 02:59:50;;;;;;;2.92;1.60;;;;;;;20.86;48.54;100403.91;4093430;29;20453;-70
2023/07/20 03:01:54;;;;;;;3.17;1.48;;;;;;;20.85;48.33;100409.25;4063878;29;20088;-70
2023/07/20 03:03:57;;;;;;;3.85;1.90;;;;;;;20.81;48.52;100405.84;4079774;29;20044;-70
2023/07/20 03:05:59;;;;;;;3.33;1.77;;;;;;;20.79;48.61;100406.78;4074374;29;20474;-70
2023/07/20 03:08:03;;;;;;;5.90;2.30;;;;;;;20.78;48.74;100400.66;4076476;29;20040;-70
2023/07/20 03:10:09;;;;;;;5.10;2.08;;;;;;;20.76;48.56;100405.09;4076254;29;20123;-71
2023/07/20 03:12:12;;;;;;;3.72;1.98;;;;;;;20.73;48.73;100405.19;4091509;29;20044;-71
2023/07/20 03:14:15;;;;;;;1.77;1.58;;;;;;;20.72;48.81;100406.09;4085994;29;20058;-71
2023/07/20 03:16:20;;;;;;;8.05;2.08;;;;;;;20.69;48.45;100401.78;4095017;28;20042;-70
2023/07/20 03:18:23;;;;;;;4.63;2.00;;;;;;;20.66;48.72;100398.31;4077779;29;20050;-70
2023/07/20 03:20:26;;;;;;;4.07;2.00;;;;;;;20.65;48.69;100407.16;4093223;29;20035;-70
2023/07/20 03:22:29;;;;;;;5.68;2.03;;;;;;;20.65;48.59;100410.66;4075620;29;20113;-70
2023/07/20 03:24:32;;;;;;;5.57;2.42;;;;;;;20.65;48.56;100404.53;4077008;29;20046;-70
2023/07/20 03:26:37;;;;;;;3.70;2.00;;;;;;;20.66;48.68;100404.50;4076738;29;20044;-70
2023/07/20 03:28:42;;;;;;;3.95;1.98;;;;;;;20.66;48.89;100411.53;4091860;28;20043;-70
2023/07/20 03:30:46;;;;;;;4.03;1.88;;;;;;;20.66;48.78;100411.53;4077903;29;20043;-70
2023/07/20 03:32:49;;;;;;;4.43;1.98;;;;;;;20.66;48.63;100416.81;4094487;29;20035;-70
2023/07/20 03:34:52;;;;;;;5.80;2.00;;;;;;;20.65;48.89;100423.03;4079720;29;20064;-69
2023/07/20 03:36:55;;;;;;;7.63;2.10;;;;;;;20.63;49.04;100425.69;4060968;29;20056;-70
2023/07/20 03:38:58;;;;;;;3.88;1.90;;;;;;;20.60;49.40;100428.41;4066932;29;20495;-70
2023/07/20 03:41:01;;;;;;;4.93;1.77;;;;;;;20.54;49.34;100428.59;4074781;29;20047;-70
2023/07/20 03:43:05;;;;;;;5.65;2.05;;;;;;;20.53;49.22;100430.38;4076982;29;20130;-70
2023/07/20 03:45:09;;;;;;;7.00;1.80;;;;;;;20.49;49.46;100427.88;4097764;28;20046;-70
2023/07/20 03:47:12;;;;;;;6.78;2.38;;;;;;;20.46;49.51;100431.44;4075678;29;20123;-70
2023/07/20 03:49:15;;;;;;;7.22;2.22;;;;;;;20.42;49.67;100435.06;4090287;28;20036;-69
2023/07/20 03:51:17;;;;;;;4.20;1.98;;;;;;;20.42;49.78;100429.78;4076328;29;20035;-69
2023/07/20 03:53:19;;;;;;;4.07;1.67;;;;;;;20.41;49.76;100438.59;4076043;29;20035;-70
2023/07/20 03:55:22;;;;;;;4.57;1.90;;;;;;;20.40;49.74;100437.75;4078909;29;20078;-69
2023/07/20 03:57:25;;;;;;;4.78;1.85;;;;;;;20.38;49.90;100441.34;4092909;29;20105;-70
2023/07/20 03:59:29;;;;;;;3.25;1.55;;;;;;;20.35;51.84;100431.72;4082250;28;20044;-59
2023/07/20 04:01:36;;;;;;;3.17;1.73;;;;;;;20.70;52.00;100444.91;4078902;29;20069;-59
2023/07/20 04:03:40;;;;;;;5.68;2.00;;;;;;;21.05;50.73;100440.38;4076708;29;20068;-59
2023/07/20 04:05:43;;;;;;;3.08;1.58;;;;;;;21.27;49.70;100444.13;4086298;29;20600;-59
2023/07/20 04:07:45;;;;;;;5.10;1.77;;;;;;;21.42;49.27;100442.78;4096466;28;20130;-59
2023/07/20 04:09:48;;;;;;;3.42;1.75;;;;;;;21.53;48.66;100441.63;4096337;29;20047;-60
2023/07/20 04:11:51;;;;;;;5.40;2.03;;;;;;;21.57;48.04;100437.97;4079391;29;20131;-59
2023/07/20 04:13:56;;;;;;;3.78;1.80;;;;;;;21.61;47.92;100436.94;4065503;29;20052;-59
2023/07/20 04:16:00;;;;;;;6.35;2.33;;;;;;;21.61;48.41;100444.88;4078472;29;20036;-59
2023/07/20 04:18:03;;;;;;;4.68;2.20;;;;;;;21.61;48.41;100443.09;4080912;29;20032;-59
2023/07/20 04:20:08;;;;;;;4.45;2.20;;;;;;;21.63;48.42;100436.91;4093435;28;20111;-59
2023/07/20 04:22:11;;;;;;;4.10;2.05;;;;;;;21.63;48.22;100450.13;4076653;29;20260;-59
2023/07/20 04:24:14;;;;;;;3.17;1.52;;;;;;;21.60;48.07;100444.00;4077844;29;20036;-75
2023/07/20 04:26:16;;;;;;;13.98;2.58;;;;;;;21.35;47.95;100443.00;4061599;29;20139;-70
2023/07/20 04:28:19;;;;;;;6.63;2.33;;;;;;;21.03;48.86;100447.50;4081666;29;20187;-70
2023/07/20 04:30:24;;;;;;;7.85;2.25;;;;;;;20.82;49.52;100447.22;4081452;29;20362;-70
2023/07/20 04:32:46;;;;;;;7.72;2.10;;;;;;;20.59;50.38;100453.09;4076353;29;20059;-70
2023/07/20 04:34:49;;;;;;;8.07;2.65;;;;;;;20.49;50.99;100457.75;4078678;29;20040;-70
2023/07/20 04:36:53;;;;;;;8.15;2.10;;;;;;;20.36;51.31;100456.38;4080067;29;20142;-70
2023/07/20 04:38:57;;;;;;;;;;;;;;;20.19;52.34;100460.31;4081684;29;20046;-70
2023/07/20 04:40:59;;;;;;;6.20;2.20;;;;;;;20.20;52.25;100456.75;4093807;29;19922;-70
2023/07/20 04:43:03;;;;;;;5.82;2.10;;;;;;;20.16;52.71;100460.38;4079631;29;20172;-70
2023/07/20 04:45:07;;;;;;;10.00;2.72;;;;;;;20.15;52.96;100457.78;4088438;29;20098;-70
2023/07/20 04:47:12;;;;;;;11.07;2.53;;;;;;;20.15;53.33;100457.78;4083083;29;20641;-70
2023/07/20 04:49:16;;;;;;;8.68;2.15;;;;;;;20.15;53.71;100458.66;4076361;29;20441;-70
2023/07/20 04:51:20;;;;;;;7.13;2.30;;;;;;;20.13;53.83;100456.97;4060455;29;20048;-70
2023/07/20 04:53:25;;;;;;;6.15;2.30;;;;;;;20.11;54.29;100457.00;4080874;29;20043;-70
2023/07/20 04:55:27;;;;;;;6.60;2.65;;;;;;;20.11;54.43;100451.72;4081167;29;20040;-70
2023/07/20 04:57:30;;;;;;;8.07;2.60;;;;;;;20.07;55.16;100455.34;4078495;29;20166;-70
2023/07/20 04:59:33;;;;;;;9.85;2.70;;;;;;;20.13;55.31;100451.69;4077993;29;20072;-70
2023/07/20 05:01:36;;;;;;;5.43;2.25;;;;;;;20.19;55.09;100452.41;4078830;29;20553;-69
2023/07/20 05:03:39;;;;;;;5.57;2.28;;;;;;;20.11;55.14;100446.44;4092704;29;20549;-70
2023/07/20 05:05:47;;;;;;;7.07;2.22;;;;;;;20.16;54.64;100447.19;4079624;29;20043;-69
2023/07/20 05:07:52;;;;;;;5.57;2.50;;;;;;;20.15;54.27;100452.50;4078270;29;20063;-69
2023/07/20 05:09:55;;;;;;;6.70;2.13;;;;;;;20.18;53.80;100442.75;4081145;29;20047;-70
2023/07/20 05:11:58;;;;;;;5.87;2.50;;;;;;;20.23;53.69;100445.25;4080078;29;20048;-69
2023/07/20 05:14:02;;;;;;;4.13;2.20;;;;;;;20.26;53.38;100445.16;4085589;29;20785;-70
2023/07/20 05:16:05;;;;;;;5.55;2.40;;;;;;;20.28;52.87;100446.00;4064567;29;20103;-70
2023/07/20 05:18:09;;;;;;;4.43;2.38;;;;;;;20.33;52.91;100438.81;4076627;29;20040;-70
2023/07/20 05:20:12;;;;;;;8.77;2.92;;;;;;;20.34;52.93;100443.22;4062808;29;20101;-70
2023/07/20 05:22:17;;;;;;;4.88;2.20;;;;;;;20.36;52.83;100445.81;4084195;29;20043;-70
2023/07/20 05:24:20;;;;;;;6.18;2.28;;;;;;;20.36;53.02;100453.72;4079745;29;20132;-70
2023/07/20 05:26:23;;;;;;;7.63;2.58;;;;;;;20.39;53.16;100453.63;4092993;29;20045;-70
2023/07/20 05:28:27;;;;;;;5.75;2.25;;;;;;;20.36;52.86;100465.16;4096549;29;20043;-70
2023/07/20 05:30:30;;;;;;;3.67;1.70;;;;;;;20.22;52.73;100462.88;4093438;29;20048;-70
2023/07/20 05:32:33;;;;;;;5.05;1.80;;;;;;;20.22;53.00;100459.34;4079630;29;20044;-70
2023/07/20 05:34:35;;;;;;;3.88;2.00;;;;;;;20.22;52.36;100464.63;4095098;29;20445;-70
2023/07/20 05:36:38;;;;;;;6.78;1.73;;;;;;;20.20;52.41;100453.25;4094981;29;20530;-70
2023/07/20 05:38:42;;;;;;;5.90;2.28;;;;;;;20.21;52.16;100455.84;4076857;29;20086;-70
2023/07/20 05:40:46;;;;;;;3.20;2.00;;;;;;;20.17;52.13;100463.91;4092779;29;21639;-70
2023/07/20 05:42:51;;;;;;;7.35;4.03;;;;;;;20.18;52.01;100463.84;4078807;29;20036;-70
2023/07/20 05:44:55;;;;;;;5.68;2.00;;;;;;;20.21;51.73;100462.91;4093333;28;20049;-70
2023/07/20 05:46:58;;;;;;;5.53;2.50;;;;;;;20.20;51.96;100462.03;4093002;28;20059;-70
2023/07/20 05:49:01;;;;;;;4.57;2.00;;;;;;;20.28;52.13;100461.84;4095904;28;20039;-70
2023/07/20 05:51:04;;;;;;;3.13;1.98;;;;;;;20.35;51.86;100462.53;4091861;29;20043;-70
2023/07/20 05:53:07;;;;;;;5.07;2.08;;;;;;;20.37;51.67;100468.63;4056442;29;20506;-70
2023/07/20 05:55:11;;;;;;;3.50;2.10;;;;;;;20.37;51.82;100460.72;4090126;29;20074;-70
2023/07/20 05:57:14;;;;;;;5.07;2.20;;;;;;;20.42;51.68;100465.91;4088099;29;20048;-71
2023/07/20 05:59:17;;;;;;;2.67;1.80;;;;;;;20.43;51.72;100457.06;4077782;29;20126;-71
2023/07/20 06:01:20;;;;;;;6.38;2.38;;;;;;;20.49;51.77;100460.41;4090500;29;20617;-70
2023/07/20 06:03:23;;;;;;;5.85;2.13;;;;;;;20.49;51.92;100465.69;4093427;29;20054;-70
2023/07/20 06:05:26;;;;;;;2.90;1.80;;;;;;;20.48;51.84;100463.94;4093558;29;20055;-71
2023/07/20 06:07:31;;;;;;;3.78;1.83;;;;;;;20.37;52.26;100469.53;4089559;29;20039;-70
2023/07/20 06:09:34;;;;;;;6.13;2.63;;;;;;;20.40;52.06;100468.59;4095261;28;20417;-70
2023/07/20 06:11:39;;;;;;;4.03;2.10;;;;;;;20.57;52.03;100466.34;4093340;29;20110;-70
2023/07/20 06:13:43;;;;;;;5.90;2.13;;;;;;;20.63;52.04;100464.44;4091617;29;20074;-70
2023/07/20 06:15:47;;;;;;;5.40;1.98;;;;;;;20.62;52.03;100470.63;4094783;29;20039;-70
2023/07/20 06:17:50;;;;;;;4.50;2.28;;;;;;;20.68;51.87;100470.50;4093180;29;20042;-70
2023/07/20 06:19:53;;;;;;;2.67;1.90;;;;;;;20.81;51.73;100465.72;4077637;29;20091;-70
2023/07/20 06:21:55;;;;;;;5.18;2.13;;;;;;;20.83;51.49;100469.22;4078237;29;20442;-70
2023/07/20 06:23:58;;;;;;;3.70;2.00;;;;;;;20.83;51.43;100470.06;4090201;29;20039;-70
2023/07/20 06:26:01;;;;;;;5.13;2.08;;;;;;;20.80;51.57;100472.81;4090595;29;20044;-70
2023/07/20 06:28:05;;;;;;;10.23;2.45;;;;;;;20.86;51.42;100467.34;4070534;29;20124;-69
2023/07/20 06:30:09;;;;;;;5.45;2.40;;;;;;;21.06;51.13;100460.63;4091053;29;20481;-69
2023/07/20 06:32:13;;;;;;;8.23;2.47;;;;;;;21.24;50.75;100461.84;4093388;29;20552;-70
2023/07/20 06:34:15;;;;;;;6.70;2.30;;;;;;;21.27;50.75;100462.63;4090629;29;20082;-70
2023/07/20 06:36:20;;;;;;;6.63;2.50;;;;;;;21.24;50.47;100462.69;4096652;29;20050;-70
2023/07/20 06:38:23;;;;;;;3.92;2.00;;;;;;;21.38;50.25;100467.59;4090990;29;20042;-69
2023/07/20 06:40:31;;;;;;;8.77;2.28;;;;;;;21.55;49.88;100459.19;4091961;29;20387;-70
2023/07/20 06:42:37;;;;;;;5.75;2.22;;;;;;;21.70;49.86;100456.94;4060109;29;20047;-70
2023/07/20 06:44:45;;;;;;;5.43;1.90;;;;;;;21.84;49.42;100459.16;4079275;29;20067;-70
2023/07/20 06:46:48;;;;;;;5.93;2.15;;;;;;;21.99;49.66;100460.41;4091251;29;20505;-70
2023/07/20 06:48:51;;;;;;;6.03;1.85;;;;;;;22.09;49.16;100451.25;4079335;29;20040;-70
2023/07/20 06:50:56;;;;;;;8.45;2.13;;;;;;;22.17;48.74;100459.81;4092128;29;20484;-70
2023/07/20 06:52:59;;;;;;;7.93;2.65;;;;;;;22.34;48.14;100459.28;4089884;29;20135;-70
2023/07/20 06:55:03;;;;;;;4.70;2.08;;;;;;;22.35;48.17;100463.63;4075449;29;20040;-69
2023/07/20 06:57:08;;;;;;;3.60;1.48;;;;;;;22.44;48.06;100459.78;4083815;29;20576;-70
2023/07/20 06:59:13;;;;;;;7.22;2.58;;;;;;;22.57;47.72;100458.44;4094682;28;20042;-70
2023/07/20 07:01:17;;;;;;;6.13;2.40;;;;;;;22.63;47.76;100462.66;4092997;29;20134;-70
2023/07/20 07:03:21;;;;;;;10.68;3.20;;;;;;;22.73;46.84;100460.53;4092699;29;20039;-70
2023/07/20 07:05:30;;;;;;;4.60;2.13;;;;;;;22.79;46.19;100463.84;4088971;29;20102;-69
2023/07/20 07:07:36;;;;;;;7.50;2.00;;;;;;;22.84;46.75;100461.88;4095065;29;20467;-70
2023/07/20 07:09:43;;;;;;;7.53;1.95;;;;;;;22.97;46.87;100461.44;4091154;28;20058;-70
2023/07/20 07:11:46;;;;;;;3.35;1.98;;;;;;;23.07;45.84;100459.28;4073880;29;20433;-70
2023/07/20 07:13:51;;;;;;;3.25;1.70;;;;;;;23.12;46.21;100465.31;4094352;29;20414;-69
2023/07/20 07:15:54;;;;;;;4.47;1.98;;;;;;;23.08;45.84;100468.97;4091659;29;20545;-69
2023/07/20 07:17:59;;;;;;;6.05;2.10;;;;;;;23.14;45.24;100464.34;4076757;29;20040;-69
2023/07/20 07:20:02;;;;;;;3.83;1.80;;;;;;;23.26;45.34;100465.66;4094791;29;20046;-69
2023/07/20 07:22:05;;;;;;;3.83;1.88;;;;;;;23.37;45.24;100459.09;4089419;29;20074;-69
2023/07/20 07:24:09;;;;;;;4.63;1.70;;;;;;;23.41;44.51;100458.00;4091829;29;20056;-69
2023/07/20 07:26:12;;;;;;;6.93;2.22;;;;;;;23.58;43.80;100458.22;4093336;29;20039;-69
2023/07/20 07:28:15;;;;;;;6.40;1.90;;;;;;;23.75;42.67;100452.22;4091927;29;20058;-69
2023/07/20 07:30:18;;;;;;;4.88;1.65;;;;;;;23.51;44.12;100468.22;4076251;29;20040;-69
2023/07/20 07:32:22;;;;;;;4.05;2.05;;;;;;;23.28;43.99;100469.13;4076536;29;20122;-69
2023/07/20 07:34:26;;;;;;;9.20;2.50;;;;;;;23.17;43.98;100461.59;4077417;29;20060;-69
2023/07/20 07:36:29;;;;;;;4.95;1.67;;;;;;;22.89;43.54;100467.00;4090389;29;20040;-69
2023/07/20 07:38:32;;;;;;;2.53;1.50;;;;;;;22.59;43.97;100471.63;4076206;29;20094;-69
2023/07/20 07:40:55;;;;;;;2.50;1.42;;;;;;;22.41;44.35;100470.50;4098993;29;20047;-69
2023/07/20 07:42:58;;;;;;;5.03;1.60;;;;;;;22.40;44.62;100460.81;4095218;29;20077;-69
2023/07/20 07:45:00;;;;;;;2.92;1.48;;;;;;;22.30;45.07;100466.41;4089783;28;20066;-69
2023/07/20 07:47:02;;;;;;;2.85;1.60;;;;;;;22.52;44.75;100464.84;4094302;29;20609;-69
2023/07/20 07:49:05;;;;;;;3.25;1.77;;;;;;;22.81;43.78;100466.44;4079253;29;20075;-69
2023/07/20 07:51:10;;;;;;;5.07;1.63;;;;;;;23.07;43.42;100470.78;4094025;29;20130;-69
2023/07/20 07:53:13;;;;;;;6.20;1.90;;;;;;;23.35;43.04;100462.66;4099025;29;20102;-69
2023/07/20 07:55:17;;;;;;;6.68;2.05;;;;;;;23.45;42.72;100467.59;4096454;29;20130;-69
2023/07/20 07:57:20;;;;;;;4.25;1.90;;;;;;;23.48;42.33;100460.38;4078838;29;20042;-69
2023/07/20 07:59:23;;;;;;;5.18;1.95;;;;;;;23.77;41.54;100466.31;4098525;28;20043;-69
2023/07/20 08:01:26;;;;;;;5.20;1.80;;;;;;;23.78;41.51;100459.22;4081560;29;20046;-69
2023/07/20 08:03:29;;;;;;;2.97;1.65;;;;;;;23.34;42.20;100466.22;4077303;29;20142;-69
2023/07/20 08:05:32;;;;;;;4.10;1.98;;;;;;;23.31;42.10;100474.28;4097648;29;20109;-69
2023/07/20 08:07:37;;;;;;;;;;;;;;;23.14;42.42;100472.31;4097865;29;20044;-70
2023/07/20 08:09:40;;;;;;;5.60;1.90;;;;;;;23.13;42.75;100467.91;4093789;28;19929;-69
2023/07/20 08:11:43;;;;;;;4.60;2.20;;;;;;;23.37;42.79;100454.63;4079532;29;20046;-69
2023/07/20 08:13:46;;;;;;;4.68;1.90;;;;;;;23.83;41.52;100458.09;4080647;29;20040;-69
2023/07/20 08:15:51;;;;;;;6.85;2.60;;;;;;;23.91;41.42;100465.78;4065552;29;20044;-69
2023/07/20 08:17:54;;;;;;;3.60;1.80;;;;;;;23.90;41.29;100461.38;4078073;29;20039;-69
2023/07/20 08:19:57;;;;;;;4.15;1.65;;;;;;;23.69;41.37;100466.59;4095218;29;20110;-69
2023/07/20 08:22:00;;;;;;;5.65;1.65;;;;;;;23.32;42.25;100462.78;4095746;29;20067;-69
2023/07/20 08:24:05;;;;;;;6.00;2.15;;;;;;;23.13;43.01;100467.91;4093652;29;20069;-69
2023/07/20 08:26:08;;;;;;;5.47;2.00;;;;;;;22.96;42.67;100472.97;4095362;29;20031;-69
2023/07/20 08:28:11;;;;;;;4.00;1.80;;;;;;;22.81;42.91;100463.78;4081369;28;20122;-69
2023/07/20 08:30:14;;;;;;;3.97;1.60;;;;;;;22.73;42.92;100471.16;4096097;29;20490;-69
2023/07/20 08:32:17;;;;;;;3.42;1.65;;;;;;;22.60;43.13;100468.06;4077033;29;20043;-69
2023/07/20 08:34:20;;;;;;;7.03;2.10;;;;;;;22.59;43.23;100472.50;4097795;29;20575;-69
2023/07/20 08:36:33;;;;;;;1.80;1.23;;;;;;;22.66;43.66;100473.13;4094964;29;20051;-69
2023/07/20 08:38:36;;;;;;;7.15;1.60;;;;;;;23.05;42.80;100475.25;4076542;29;20130;-69
2023/07/20 08:40:46;;;;;;;3.65;1.80;;;;;;;23.34;41.79;100476.84;4096236;29;20508;-69
2023/07/20 08:42:50;;;;;;;5.88;1.85;;;;;;;23.50;41.50;100470.94;4094980;29;20047;-69
2023/07/20 08:44:53;;;;;;;2.30;1.40;;;;;;;23.63;41.47;100469.53;4090958;29;20122;-69
2023/07/20 08:46:56;;;;;;;4.85;1.88;;;;;;;23.88;41.34;100464.09;4080166;29;20540;-69
2023/07/20 08:49:01;;;;;;;4.40;2.10;;;;;;;24.10;41.16;100470.31;4081157;29;20055;-70
2023/07/20 08:51:06;;;;;;;3.40;1.50;;;;;;;24.44;39.01;100459.09;4094227;28;20039;-69
2023/07/20 08:53:11;;;;;;;4.47;1.60;;;;;;;24.35;39.20;100460.38;4095156;29;20382;-69
2023/07/20 08:55:14;;;;;;;8.02;1.70;;;;;;;24.31;39.63;100464.09;4094551;29;20031;-69
2023/07/20 08:57:19;;;;;;;7.97;1.83;;;;;;;24.40;39.36;100469.00;4082912;29;20051;-69
2023/07/20 08:59:26;;;;;;;4.05;1.70;;;;;;;24.53;38.88;100458.72;4105109;23;20528;-62
2023/07/20 09:01:30;;;;;;;6.18;1.63;;;;;;;24.80;38.31;100458.44;4104404;28;20038;-62
2023/07/20 09:03:32;;;;;;;2.70;1.55;;;;;;;24.79;38.80;100464.69;4109320;28;20125;-62
2023/07/20 09:05:36;;;;;;;2.95;1.60;;;;;;;24.97;38.50;100460.34;4102328;28;20408;-63
2023/07/20 09:07:39;;;;;;;7.05;1.80;;;;;;;25.18;37.59;100452.28;4107799;28;20042;-63
2023/07/20 09:09:42;;;;;;;6.80;2.03;;;;;;;25.03;38.42;100454.72;4096431;29;20237;-63
2023/07/20 09:11:48;;;;;;;4.25;1.70;;;;;;;24.85;39.05;100447.59;4106379;28;20038;-63
2023/07/20 09:14:05;;;;;;;4.32;1.83;;;;;;;24.62;39.55;100451.28;4102667;28;20046;-63
2023/07/20 09:16:08;;;;;;;9.65;2.08;;;;;;;24.44;39.42;100458.25;4109876;28;20051;-63
2023/07/20 09:18:11;;;;;;;5.20;2.03;;;;;;;24.39;38.84;100456.66;4111693;28;20035;-63
2023/07/20 09:20:16;;;;;;;3.45;1.40;;;;;;;24.03;39.66;100454.66;4105791;28;20557;-63
2023/07/20 09:22:23;;;;;;;4.82;2.33;;;;;;;23.95;39.86;100455.91;4100566;28;20046;-63
2023/07/20 09:24:30;;;;;;;3.55;1.40;;;;;;;23.92;40.16;100459.53;4104080;28;20126;-62
2023/07/20 09:26:42;;;;;;;2.55;1.60;;;;;;;23.83;40.08;100458.09;4104731;28;20035;-62
2023/07/20 09:28:49;;;;;;;3.70;1.73;;;;;;;23.99;40.32;100447.75;4102865;28;20070;-63
2023/07/20 09:30:55;;;;;;;4.38;1.40;;;;;;;24.36;39.77;100450.63;4103844;28;20043;-63
2023/07/20 09:32:58;;;;;;;4.00;1.70;;;;;;;24.60;39.65;100459.31;4106483;28;20049;-63
2023/07/20 09:35:02;;;;;;;3.50;1.75;;;;;;;24.86;39.30;100446.66;4104194;28;20508;-63
2023/07/20 09:37:27;;;;;;;4.78;1.50;;;;;;;25.17;38.53;100453.22;4107758;28;20085;-63
2023/07/20 09:39:49;;;;;;;5.72;1.98;;;;;;;25.40;38.43;100454.84;4107121;28;20074;-63